sensor_id;sensor_type;location;lat;lon;timestamp;P1;durP1;ratioP1;P2;durP2;ratioP2
14754;SDS011;7469;50.906;6.952;2023-05-15T00:00:49;4.60;;;3.30;;
14754;SDS011;7469;50.906;6.952;2023-05-15T00:03:17;4.40;;;3.20;;
14754;SDS011;7469;50.906;6.952;2023-05-15T00:05:46;4.10;;;3.57;;
14754;SDS011;7469;50.906;6.952;2023-05-15T00:08:15;6.60;;;3.33;;
14754;SDS011;7469;50.906;6.952;2023-05-15T00:10:42;4.10;;;3.60;;
14754;SDS011;7469;50.906;6.952;2023-05-15T00:13:26;5.50;;;3.57;;
14754;SDS011;7469;50.906;6.952;2023-05-15T00:15:54;6.03;;;3.50;;
14754;SDS011;7469;50.906;6.952;2023-05-15T00:18:22;5.10;;;3.60;;
14754;SDS011;7469;50.906;6.952;2023-05-15T00:20:51;4.90;;;3.70;;
14754;SDS011;7469;50.906;6.952;2023-05-15T00:23:19;3.80;;;3.40;;
14754;SDS011;7469;50.906;6.952;2023-05-15T00:25:47;4.83;;;3.97;;
14754;SDS011;7469;50.906;6.952;2023-05-15T00:28:15;9.30;;;4.20;;
14754;SDS011;7469;50.906;6.952;2023-05-15T00:30:43;6.00;;;3.73;;
14754;SDS011;7469;50.906;6.952;2023-05-15T00:33:11;4.47;;;3.93;;
14754;SDS011;7469;50.906;6.952;2023-05-15T00:35:39;4.63;;;4.23;;
14754;SDS011;7469;50.906;6.952;2023-05-15T00:38:08;6.27;;;4.00;;
14754;SDS011;7469;50.906;6.952;2023-05-15T00:40:36;5.57;;;4.23;;
14754;SDS011;7469;50.906;6.952;2023-05-15T00:43:05;4.83;;;4.27;;
14754;SDS011;7469;50.906;6.952;2023-05-15T00:45:34;9.23;;;4.30;;
14754;SDS011;7469;50.906;6.952;2023-05-15T00:48:05;4.80;;;4.40;;
14754;SDS011;7469;50.906;6.952;2023-05-15T00:50:35;5.77;;;4.80;;
14754;SDS011;7469;50.906;6.952;2023-05-15T00:53:03;8.67;;;4.97;;
14754;SDS011;7469;50.906;6.952;2023-05-15T00:55:33;7.60;;;5.20;;
14754;SDS011;7469;50.906;6.952;2023-05-15T00:58:02;5.47;;;4.60;;
14754;SDS011;7469;50.906;6.952;2023-05-15T01:00:31;8.47;;;5.33;;
14754;SDS011;7469;50.906;6.952;2023-05-15T01:03:00;9.83;;;5.97;;
14754;SDS011;7469;50.906;6.952;2023-05-15T01:05:28;11.10;;;6.60;;
14754;SDS011;7469;50.906;6.952;2023-05-15T01:07:58;11.93;;;7.00;;
14754;SDS011;7469;50.906;6.952;2023-05-15T01:10:33;10.73;;;6.50;;
14754;SDS011;7469;50.906;6.952;2023-05-15T01:13:02;9.00;;;6.43;;
14754;SDS011;7469;50.906;6.952;2023-05-15T01:15:34;8.20;;;6.20;;
14754;SDS011;7469;50.906;6.952;2023-05-15T01:18:02;10.27;;;7.13;;
14754;SDS011;7469;50.906;6.952;2023-05-15T01:20:31;13.57;;;6.73;;
14754;SDS011;7469;50.906;6.952;2023-05-15T01:23:10;10.60;;;7.37;;
14754;SDS011;7469;50.906;6.952;2023-05-15T01:26:04;10.53;;;6.93;;
14754;SDS011;7469;50.906;6.952;2023-05-15T01:28:50;8.73;;;6.63;;
14754;SDS011;7469;50.906;6.952;2023-05-15T01:31:24;14.17;;;7.20;;
14754;SDS011;7469;50.906;6.952;2023-05-15T01:33:57;11.90;;;7.40;;
14754;SDS011;7469;50.906;6.952;2023-05-15T01:36:29;8.57;;;6.83;;
14754;SDS011;7469;50.906;6.952;2023-05-15T01:39:03;8.80;;;6.80;;
14754;SDS011;7469;50.906;6.952;2023-05-15T01:41:34;11.30;;;7.83;;
14754;SDS011;7469;50.906;6.952;2023-05-15T01:44:10;12.77;;;7.60;;
14754;SDS011;7469;50.906;6.952;2023-05-15T01:46:44;11.00;;;7.67;;
14754;SDS011;7469;50.906;6.952;2023-05-15T01:49:16;12.50;;;8.70;;
14754;SDS011;7469;50.906;6.952;2023-05-15T01:51:47;13.13;;;8.40;;
14754;SDS011;7469;50.906;6.952;2023-05-15T01:54:19;14.73;;;8.77;;
14754;SDS011;7469;50.906;6.952;2023-05-15T01:56:48;16.20;;;9.40;;
14754;SDS011;7469;50.906;6.952;2023-05-15T01:59:19;12.60;;;8.43;;
14754;SDS011;7469;50.906;6.952;2023-05-15T02:01:49;15.33;;;9.97;;
14754;SDS011;7469;50.906;6.952;2023-05-15T02:04:18;15.27;;;10.63;;
14754;SDS011;7469;50.906;6.952;2023-05-15T02:06:47;17.23;;;10.57;;
14754;SDS011;7469;50.906;6.952;2023-05-15T02:09:18;25.43;;;11.50;;
14754;SDS011;7469;50.906;6.952;2023-05-15T02:11:47;20.17;;;11.77;;
14754;SDS011;7469;50.906;6.952;2023-05-15T02:14:16;21.03;;;12.33;;
14754;SDS011;7469;50.906;6.952;2023-05-15T02:16:45;20.77;;;11.43;;
14754;SDS011;7469;50.906;6.952;2023-05-15T02:19:14;24.63;;;13.43;;
14754;SDS011;7469;50.906;6.952;2023-05-15T02:21:42;22.50;;;14.37;;
14754;SDS011;7469;50.906;6.952;2023-05-15T02:24:12;24.43;;;14.63;;
14754;SDS011;7469;50.906;6.952;2023-05-15T02:26:43;28.03;;;15.67;;
14754;SDS011;7469;50.906;6.952;2023-05-15T02:29:18;27.67;;;15.30;;
14754;SDS011;7469;50.906;6.952;2023-05-15T02:31:55;30.80;;;15.50;;
14754;SDS011;7469;50.906;6.952;2023-05-15T02:34:31;27.37;;;15.17;;
14754;SDS011;7469;50.906;6.952;2023-05-15T02:37:06;25.80;;;15.40;;
14754;SDS011;7469;50.906;6.952;2023-05-15T02:39:40;24.10;;;15.60;;
14754;SDS011;7469;50.906;6.952;2023-05-15T02:42:11;25.83;;;16.00;;
14754;SDS011;7469;50.906;6.952;2023-05-15T02:44:43;26.33;;;15.77;;
14754;SDS011;7469;50.906;6.952;2023-05-15T02:47:14;23.43;;;16.37;;
14754;SDS011;7469;50.906;6.952;2023-05-15T02:49:43;28.23;;;16.93;;
14754;SDS011;7469;50.906;6.952;2023-05-15T02:52:12;25.67;;;16.40;;
14754;SDS011;7469;50.906;6.952;2023-05-15T02:54:40;30.00;;;17.53;;
14754;SDS011;7469;50.906;6.952;2023-05-15T02:57:08;27.27;;;18.73;;
14754;SDS011;7469;50.906;6.952;2023-05-15T02:59:36;28.47;;;19.27;;
14754;SDS011;7469;50.906;6.952;2023-05-15T03:02:03;29.67;;;17.93;;
14754;SDS011;7469;50.906;6.952;2023-05-15T03:04:33;31.73;;;18.83;;
14754;SDS011;7469;50.906;6.952;2023-05-15T03:07:01;26.77;;;17.97;;
14754;SDS011;7469;50.906;6.952;2023-05-15T03:09:29;28.17;;;19.53;;
14754;SDS011;7469;50.906;6.952;2023-05-15T03:11:57;31.57;;;19.40;;
14754;SDS011;7469;50.906;6.952;2023-05-15T03:14:25;31.70;;;19.53;;
14754;SDS011;7469;50.906;6.952;2023-05-15T03:16:53;26.57;;;20.30;;
14754;SDS011;7469;50.906;6.952;2023-05-15T03:19:21;29.97;;;21.13;;
14754;SDS011;7469;50.906;6.952;2023-05-15T03:21:53;29.93;;;20.50;;
14754;SDS011;7469;50.906;6.952;2023-05-15T03:24:21;35.40;;;21.30;;
14754;SDS011;7469;50.906;6.952;2023-05-15T03:26:49;29.20;;;20.13;;
14754;SDS011;7469;50.906;6.952;2023-05-15T03:29:17;32.17;;;20.50;;
14754;SDS011;7469;50.906;6.952;2023-05-15T03:31:44;31.63;;;20.70;;
14754;SDS011;7469;50.906;6.952;2023-05-15T03:34:12;30.47;;;20.13;;
14754;SDS011;7469;50.906;6.952;2023-05-15T03:36:40;30.13;;;21.40;;
14754;SDS011;7469;50.906;6.952;2023-05-15T03:39:09;33.20;;;21.33;;
14754;SDS011;7469;50.906;6.952;2023-05-15T03:41:37;28.60;;;20.07;;
14754;SDS011;7469;50.906;6.952;2023-05-15T03:44:05;32.80;;;21.13;;
14754;SDS011;7469;50.906;6.952;2023-05-15T03:46:33;30.03;;;21.10;;
14754;SDS011;7469;50.906;6.952;2023-05-15T03:49:01;29.77;;;20.03;;
14754;SDS011;7469;50.906;6.952;2023-05-15T03:51:29;31.27;;;21.00;;
14754;SDS011;7469;50.906;6.952;2023-05-15T03:53:57;31.03;;;20.30;;
14754;SDS011;7469;50.906;6.952;2023-05-15T03:56:26;30.20;;;20.13;;
14754;SDS011;7469;50.906;6.952;2023-05-15T03:58:54;29.53;;;21.17;;
14754;SDS011;7469;50.906;6.952;2023-05-15T04:01:22;30.70;;;21.00;;
14754;SDS011;7469;50.906;6.952;2023-05-15T04:03:50;31.07;;;20.50;;
14754;SDS011;7469;50.906;6.952;2023-05-15T04:06:18;30.83;;;20.70;;
14754;SDS011;7469;50.906;6.952;2023-05-15T04:08:48;31.10;;;21.10;;
14754;SDS011;7469;50.906;6.952;2023-05-15T04:11:16;34.30;;;21.83;;
14754;SDS011;7469;50.906;6.952;2023-05-15T04:13:45;28.30;;;20.73;;
14754;SDS011;7469;50.906;6.952;2023-05-15T04:16:13;33.17;;;21.93;;
14754;SDS011;7469;50.906;6.952;2023-05-15T04:18:41;30.93;;;20.57;;
14754;SDS011;7469;50.906;6.952;2023-05-15T04:21:09;30.57;;;21.40;;
14754;SDS011;7469;50.906;6.952;2023-05-15T04:23:37;30.43;;;21.37;;
14754;SDS011;7469;50.906;6.952;2023-05-15T04:26:06;36.30;;;24.03;;
14754;SDS011;7469;50.906;6.952;2023-05-15T04:28:35;36.47;;;22.27;;
14754;SDS011;7469;50.906;6.952;2023-05-15T04:31:04;32.93;;;21.37;;
14754;SDS011;7469;50.906;6.952;2023-05-15T04:33:32;29.03;;;21.47;;
14754;SDS011;7469;50.906;6.952;2023-05-15T04:36:00;32.63;;;20.97;;
14754;SDS011;7469;50.906;6.952;2023-05-15T04:38:28;33.13;;;21.23;;
14754;SDS011;7469;50.906;6.952;2023-05-15T04:40:56;32.97;;;21.67;;
14754;SDS011;7469;50.906;6.952;2023-05-15T04:43:24;32.87;;;21.20;;
14754;SDS011;7469;50.906;6.952;2023-05-15T04:45:52;33.50;;;22.83;;
14754;SDS011;7469;50.906;6.952;2023-05-15T04:48:21;36.77;;;23.83;;
14754;SDS011;7469;50.906;6.952;2023-05-15T04:50:49;37.57;;;24.77;;
14754;SDS011;7469;50.906;6.952;2023-05-15T04:53:17;33.60;;;21.93;;
14754;SDS011;7469;50.906;6.952;2023-05-15T04:55:45;33.33;;;20.93;;
14754;SDS011;7469;50.906;6.952;2023-05-15T04:58:16;29.57;;;20.13;;
14754;SDS011;7469;50.906;6.952;2023-05-15T05:00:44;28.63;;;19.07;;
14754;SDS011;7469;50.906;6.952;2023-05-15T05:03:13;31.10;;;20.93;;
14754;SDS011;7469;50.906;6.952;2023-05-15T05:05:42;31.43;;;21.93;;
14754;SDS011;7469;50.906;6.952;2023-05-15T05:08:10;31.90;;;20.73;;
14754;SDS011;7469;50.906;6.952;2023-05-15T05:10:38;33.50;;;21.90;;
14754;SDS011;7469;50.906;6.952;2023-05-15T05:13:06;37.27;;;24.53;;
14754;SDS011;7469;50.906;6.952;2023-05-15T05:15:36;37.57;;;23.77;;
14754;SDS011;7469;50.906;6.952;2023-05-15T05:18:04;40.03;;;24.87;;
14754;SDS011;7469;50.906;6.952;2023-05-15T05:20:32;31.00;;;22.67;;
14754;SDS011;7469;50.906;6.952;2023-05-15T05:23:01;33.80;;;22.93;;
14754;SDS011;7469;50.906;6.952;2023-05-15T05:25:29;31.70;;;24.10;;
14754;SDS011;7469;50.906;6.952;2023-05-15T05:27:57;37.10;;;26.17;;
14754;SDS011;7469;50.906;6.952;2023-05-15T05:30:25;37.30;;;24.73;;
14754;SDS011;7469;50.906;6.952;2023-05-15T05:32:53;34.17;;;24.40;;
14754;SDS011;7469;50.906;6.952;2023-05-15T05:35:22;35.70;;;24.00;;
14754;SDS011;7469;50.906;6.952;2023-05-15T05:37:50;37.27;;;26.20;;
14754;SDS011;7469;50.906;6.952;2023-05-15T05:40:19;38.13;;;25.97;;
14754;SDS011;7469;50.906;6.952;2023-05-15T05:42:47;35.10;;;24.43;;
14754;SDS011;7469;50.906;6.952;2023-05-15T05:45:15;34.97;;;24.83;;
14754;SDS011;7469;50.906;6.952;2023-05-15T05:47:43;37.43;;;24.13;;
14754;SDS011;7469;50.906;6.952;2023-05-15T05:50:11;33.07;;;24.53;;
14754;SDS011;7469;50.906;6.952;2023-05-15T05:52:39;35.50;;;24.20;;
14754;SDS011;7469;50.906;6.952;2023-05-15T05:55:07;32.77;;;23.27;;
14754;SDS011;7469;50.906;6.952;2023-05-15T05:57:37;30.27;;;21.83;;
14754;SDS011;7469;50.906;6.952;2023-05-15T06:00:06;31.10;;;20.70;;
14754;SDS011;7469;50.906;6.952;2023-05-15T06:02:35;29.50;;;20.97;;
14754;SDS011;7469;50.906;6.952;2023-05-15T06:05:04;28.03;;;19.70;;
14754;SDS011;7469;50.906;6.952;2023-05-15T06:07:33;27.43;;;18.47;;
14754;SDS011;7469;50.906;6.952;2023-05-15T06:10:02;24.93;;;17.90;;
14754;SDS011;7469;50.906;6.952;2023-05-15T06:12:30;23.73;;;18.27;;
14754;SDS011;7469;50.906;6.952;2023-05-15T06:14:59;27.13;;;19.07;;
14754;SDS011;7469;50.906;6.952;2023-05-15T06:17:27;29.70;;;21.60;;
14754;SDS011;7469;50.906;6.952;2023-05-15T06:19:55;30.03;;;20.80;;
14754;SDS011;7469;50.906;6.952;2023-05-15T06:22:23;27.30;;;20.40;;
14754;SDS011;7469;50.906;6.952;2023-05-15T06:24:51;26.90;;;21.20;;
14754;SDS011;7469;50.906;6.952;2023-05-15T06:27:19;30.53;;;21.60;;
14754;SDS011;7469;50.906;6.952;2023-05-15T06:29:47;33.60;;;23.27;;
14754;SDS011;7469;50.906;6.952;2023-05-15T06:32:16;35.60;;;23.20;;
14754;SDS011;7469;50.906;6.952;2023-05-15T06:34:44;29.97;;;23.07;;
14754;SDS011;7469;50.906;6.952;2023-05-15T06:37:12;30.70;;;21.83;;
14754;SDS011;7469;50.906;6.952;2023-05-15T06:39:40;29.27;;;21.47;;
14754;SDS011;7469;50.906;6.952;2023-05-15T06:42:08;31.00;;;21.37;;
14754;SDS011;7469;50.906;6.952;2023-05-15T06:44:35;31.43;;;23.37;;
14754;SDS011;7469;50.906;6.952;2023-05-15T06:47:04;33.20;;;24.57;;
14754;SDS011;7469;50.906;6.952;2023-05-15T06:49:34;37.00;;;24.70;;
14754;SDS011;7469;50.906;6.952;2023-05-15T06:52:02;36.07;;;25.03;;
14754;SDS011;7469;50.906;6.952;2023-05-15T06:54:30;35.03;;;25.97;;
14754;SDS011;7469;50.906;6.952;2023-05-15T06:56:58;33.37;;;24.47;;
14754;SDS011;7469;50.906;6.952;2023-05-15T06:59:26;34.83;;;25.43;;
14754;SDS011;7469;50.906;6.952;2023-05-15T07:01:54;32.70;;;25.03;;
14754;SDS011;7469;50.906;6.952;2023-05-15T07:04:22;37.00;;;26.83;;
14754;SDS011;7469;50.906;6.952;2023-05-15T07:06:52;36.30;;;25.37;;
14754;SDS011;7469;50.906;6.952;2023-05-15T07:09:20;36.03;;;26.10;;
14754;SDS011;7469;50.906;6.952;2023-05-15T07:11:48;38.27;;;26.70;;
14754;SDS011;7469;50.906;6.952;2023-05-15T07:14:16;38.07;;;26.37;;
14754;SDS011;7469;50.906;6.952;2023-05-15T07:16:44;34.40;;;24.47;;
14754;SDS011;7469;50.906;6.952;2023-05-15T07:19:15;35.53;;;25.03;;
14754;SDS011;7469;50.906;6.952;2023-05-15T07:21:46;38.60;;;25.07;;
14754;SDS011;7469;50.906;6.952;2023-05-15T07:24:15;33.70;;;24.67;;
14754;SDS011;7469;50.906;6.952;2023-05-15T07:26:43;34.87;;;25.47;;
14754;SDS011;7469;50.906;6.952;2023-05-15T07:29:24;38.80;;;26.83;;
14754;SDS011;7469;50.906;6.952;2023-05-15T07:31:52;42.27;;;28.70;;
14754;SDS011;7469;50.906;6.952;2023-05-15T07:34:20;37.53;;;28.47;;
14754;SDS011;7469;50.906;6.952;2023-05-15T07:36:48;36.73;;;27.50;;
14754;SDS011;7469;50.906;6.952;2023-05-15T07:39:18;40.80;;;27.53;;
14754;SDS011;7469;50.906;6.952;2023-05-15T07:41:46;38.23;;;27.03;;
14754;SDS011;7469;50.906;6.952;2023-05-15T07:44:14;42.43;;;26.60;;
14754;SDS011;7469;50.906;6.952;2023-05-15T07:46:42;39.13;;;27.40;;
14754;SDS011;7469;50.906;6.952;2023-05-15T07:49:11;37.73;;;26.80;;
14754;SDS011;7469;50.906;6.952;2023-05-15T07:51:38;35.57;;;26.77;;
14754;SDS011;7469;50.906;6.952;2023-05-15T07:54:07;36.67;;;26.47;;
14754;SDS011;7469;50.906;6.952;2023-05-15T07:56:37;32.80;;;24.47;;
14754;SDS011;7469;50.906;6.952;2023-05-15T07:59:05;36.93;;;25.53;;
14754;SDS011;7469;50.906;6.952;2023-05-15T08:01:33;35.40;;;25.77;;
14754;SDS011;7469;50.906;6.952;2023-05-15T08:04:04;37.97;;;26.43;;
14754;SDS011;7469;50.906;6.952;2023-05-15T08:06:33;37.13;;;25.83;;
14754;SDS011;7469;50.906;6.952;2023-05-15T08:09:03;33.90;;;24.37;;
14754;SDS011;7469;50.906;6.952;2023-05-15T08:11:31;34.50;;;25.37;;
14754;SDS011;7469;50.906;6.952;2023-05-15T08:14:00;32.37;;;24.00;;
14754;SDS011;7469;50.906;6.952;2023-05-15T08:16:28;36.23;;;26.17;;
14754;SDS011;7469;50.906;6.952;2023-05-15T08:18:56;37.97;;;25.10;;
14754;SDS011;7469;50.906;6.952;2023-05-15T08:21:28;32.87;;;24.87;;
14754;SDS011;7469;50.906;6.952;2023-05-15T08:23:57;32.83;;;24.83;;
14754;SDS011;7469;50.906;6.952;2023-05-15T08:26:26;36.43;;;27.33;;
14754;SDS011;7469;50.906;6.952;2023-05-15T08:28:54;37.67;;;28.80;;
14754;SDS011;7469;50.906;6.952;2023-05-15T08:31:24;39.40;;;28.50;;
14754;SDS011;7469;50.906;6.952;2023-05-15T08:33:52;39.07;;;27.33;;
14754;SDS011;7469;50.906;6.952;2023-05-15T08:36:20;35.87;;;26.60;;
14754;SDS011;7469;50.906;6.952;2023-05-15T08:38:48;34.87;;;26.67;;
14754;SDS011;7469;50.906;6.952;2023-05-15T08:41:18;34.13;;;26.10;;
14754;SDS011;7469;50.906;6.952;2023-05-15T08:44:06;36.33;;;24.97;;
14754;SDS011;7469;50.906;6.952;2023-05-15T08:46:37;30.47;;;22.63;;
14754;SDS011;7469;50.906;6.952;2023-05-15T08:49:06;26.47;;;20.10;;
14754;SDS011;7469;50.906;6.952;2023-05-15T08:51:41;34.37;;;23.43;;
14754;SDS011;7469;50.906;6.952;2023-05-15T08:54:09;28.57;;;20.30;;
14754;SDS011;7469;50.906;6.952;2023-05-15T08:56:37;30.07;;;20.83;;
14754;SDS011;7469;50.906;6.952;2023-05-15T08:59:05;30.47;;;22.80;;
14754;SDS011;7469;50.906;6.952;2023-05-15T09:01:33;28.93;;;20.80;;
14754;SDS011;7469;50.906;6.952;2023-05-15T09:04:04;28.00;;;21.67;;
14754;SDS011;7469;50.906;6.952;2023-05-15T09:06:32;29.80;;;21.47;;
14754;SDS011;7469;50.906;6.952;2023-05-15T09:09:00;31.13;;;21.80;;
14754;SDS011;7469;50.906;6.952;2023-05-15T09:11:30;25.53;;;19.00;;
14754;SDS011;7469;50.906;6.952;2023-05-15T09:13:59;25.17;;;20.10;;
14754;SDS011;7469;50.906;6.952;2023-05-15T09:16:27;24.30;;;18.53;;
14754;SDS011;7469;50.906;6.952;2023-05-15T09:18:56;25.00;;;18.37;;
14754;SDS011;7469;50.906;6.952;2023-05-15T09:21:27;22.00;;;17.53;;
14754;SDS011;7469;50.906;6.952;2023-05-15T09:26:42;18.80;;;14.73;;
14754;SDS011;7469;50.906;6.952;2023-05-15T09:29:11;19.43;;;14.40;;
14754;SDS011;7469;50.906;6.952;2023-05-15T09:31:44;20.27;;;14.73;;
14754;SDS011;7469;50.906;6.952;2023-05-15T09:34:14;20.83;;;14.37;;
14754;SDS011;7469;50.906;6.952;2023-05-15T09:36:42;18.60;;;14.10;;
14754;SDS011;7469;50.906;6.952;2023-05-15T09:39:11;15.20;;;13.00;;
14754;SDS011;7469;50.906;6.952;2023-05-15T09:41:40;18.70;;;13.63;;
14754;SDS011;7469;50.906;6.952;2023-05-15T09:44:16;16.23;;;12.63;;
14754;SDS011;7469;50.906;6.952;2023-05-15T09:46:47;15.40;;;13.17;;
14754;SDS011;7469;50.906;6.952;2023-05-15T09:49:17;14.13;;;12.73;;
14754;SDS011;7469;50.906;6.952;2023-05-15T09:51:46;15.27;;;13.57;;
14754;SDS011;7469;50.906;6.952;2023-05-15T09:54:16;14.20;;;12.70;;
14754;SDS011;7469;50.906;6.952;2023-05-15T09:56:45;14.93;;;12.30;;
14754;SDS011;7469;50.906;6.952;2023-05-15T09:59:14;15.30;;;11.90;;
14754;SDS011;7469;50.906;6.952;2023-05-15T10:01:47;14.90;;;12.27;;
14754;SDS011;7469;50.906;6.952;2023-05-15T10:04:18;15.77;;;12.30;;
14754;SDS011;7469;50.906;6.952;2023-05-15T10:06:46;13.73;;;11.00;;
14754;SDS011;7469;50.906;6.952;2023-05-15T10:09:14;12.03;;;10.73;;
14754;SDS011;7469;50.906;6.952;2023-05-15T10:11:43;13.23;;;10.87;;
14754;SDS011;7469;50.906;6.952;2023-05-15T10:14:16;13.13;;;9.97;;
14754;SDS011;7469;50.906;6.952;2023-05-15T10:16:46;11.40;;;10.30;;
14754;SDS011;7469;50.906;6.952;2023-05-15T10:19:14;13.30;;;9.60;;
14754;SDS011;7469;50.906;6.952;2023-05-15T10:21:44;11.83;;;9.83;;
14754;SDS011;7469;50.906;6.952;2023-05-15T10:24:13;10.70;;;9.60;;
14754;SDS011;7469;50.906;6.952;2023-05-15T10:26:42;12.07;;;9.80;;
14754;SDS011;7469;50.906;6.952;2023-05-15T10:29:11;11.33;;;9.33;;
14754;SDS011;7469;50.906;6.952;2023-05-15T10:31:40;10.33;;;9.33;;
14754;SDS011;7469;50.906;6.952;2023-05-15T10:34:09;12.17;;;8.90;;
14754;SDS011;7469;50.906;6.952;2023-05-15T10:36:37;10.38;;;8.70;;
14754;SDS011;7469;50.906;6.952;2023-05-15T10:39:07;11.18;;;9.98;;
14754;SDS011;7469;50.906;6.952;2023-05-15T10:41:35;11.90;;;8.73;;
14754;SDS011;7469;50.906;6.952;2023-05-15T10:44:05;9.30;;;8.35;;
14754;SDS011;7469;50.906;6.952;2023-05-15T10:46:33;10.25;;;7.78;;
14754;SDS011;7469;50.906;6.952;2023-05-15T10:49:02;9.32;;;8.38;;
14754;SDS011;7469;50.906;6.952;2023-05-15T10:51:31;10.48;;;8.52;;
14754;SDS011;7469;50.906;6.952;2023-05-15T10:54:01;8.65;;;7.75;;
14754;SDS011;7469;50.906;6.952;2023-05-15T10:56:31;11.55;;;7.75;;
14754;SDS011;7469;50.906;6.952;2023-05-15T10:59:04;11.93;;;7.55;;
14754;SDS011;7469;50.906;6.952;2023-05-15T11:01:34;9.15;;;6.85;;
14754;SDS011;7469;50.906;6.952;2023-05-15T11:04:04;6.88;;;5.40;;
14754;SDS011;7469;50.906;6.952;2023-05-15T11:06:37;7.32;;;5.63;;
14754;SDS011;7469;50.906;6.952;2023-05-15T11:12:05;7.68;;;5.60;;
14754;SDS011;7469;50.906;6.952;2023-05-15T11:14:35;7.63;;;6.43;;
14754;SDS011;7469;50.906;6.952;2023-05-15T11:17:05;9.83;;;6.30;;
14754;SDS011;7469;50.906;6.952;2023-05-15T11:22:29;12.07;;;7.13;;
14754;SDS011;7469;50.906;6.952;2023-05-15T11:24:58;11.27;;;8.00;;
14754;SDS011;7469;50.906;6.952;2023-05-15T11:27:30;9.97;;;7.63;;
14754;SDS011;7469;50.906;6.952;2023-05-15T11:30:02;11.90;;;7.73;;
14754;SDS011;7469;50.906;6.952;2023-05-15T11:32:41;11.37;;;7.83;;
14754;SDS011;7469;50.906;6.952;2023-05-15T11:35:10;10.50;;;9.13;;
14754;SDS011;7469;50.906;6.952;2023-05-15T11:37:41;10.67;;;7.97;;
14754;SDS011;7469;50.906;6.952;2023-05-15T11:40:11;9.30;;;8.00;;
14754;SDS011;7469;50.906;6.952;2023-05-15T11:42:42;8.27;;;7.47;;
14754;SDS011;7469;50.906;6.952;2023-05-15T11:45:26;10.83;;;7.63;;
14754;SDS011;7469;50.906;6.952;2023-05-15T11:47:56;9.10;;;7.57;;
14754;SDS011;7469;50.906;6.952;2023-05-15T11:50:27;9.03;;;8.13;;
14754;SDS011;7469;50.906;6.952;2023-05-15T11:52:57;12.33;;;8.77;;
14754;SDS011;7469;50.906;6.952;2023-05-15T11:55:27;10.07;;;7.83;;
14754;SDS011;7469;50.906;6.952;2023-05-15T11:57:58;9.50;;;8.50;;
14754;SDS011;7469;50.906;6.952;2023-05-15T12:00:26;11.23;;;7.90;;
14754;SDS011;7469;50.906;6.952;2023-05-15T12:02:54;9.47;;;8.10;;
14754;SDS011;7469;50.906;6.952;2023-05-15T12:05:22;10.97;;;7.70;;
14754;SDS011;7469;50.906;6.952;2023-05-15T12:07:50;9.17;;;7.67;;
14754;SDS011;7469;50.906;6.952;2023-05-15T12:10:18;11.27;;;8.17;;
14754;SDS011;7469;50.906;6.952;2023-05-15T12:12:47;7.83;;;6.77;;
14754;SDS011;7469;50.906;6.952;2023-05-15T12:15:16;10.83;;;7.33;;
14754;SDS011;7469;50.906;6.952;2023-05-15T12:17:44;11.30;;;6.43;;
14754;SDS011;7469;50.906;6.952;2023-05-15T12:20:14;6.33;;;5.73;;
14754;SDS011;7469;50.906;6.952;2023-05-15T12:22:43;9.63;;;7.07;;
14754;SDS011;7469;50.906;6.952;2023-05-15T12:25:13;9.03;;;7.53;;
14754;SDS011;7469;50.906;6.952;2023-05-15T12:27:41;9.57;;;7.50;;
14754;SDS011;7469;50.906;6.952;2023-05-15T12:30:10;8.67;;;6.23;;
14754;SDS011;7469;50.906;6.952;2023-05-15T12:32:41;9.73;;;7.23;;
14754;SDS011;7469;50.906;6.952;2023-05-15T12:35:10;8.47;;;5.70;;
14754;SDS011;7469;50.906;6.952;2023-05-15T12:37:38;9.20;;;6.27;;
14754;SDS011;7469;50.906;6.952;2023-05-15T12:40:06;7.80;;;6.63;;
14754;SDS011;7469;50.906;6.952;2023-05-15T12:42:39;6.23;;;5.63;;
14754;SDS011;7469;50.906;6.952;2023-05-15T12:45:11;8.73;;;5.43;;
14754;SDS011;7469;50.906;6.952;2023-05-15T12:47:42;9.73;;;6.33;;
14754;SDS011;7469;50.906;6.952;2023-05-15T12:50:14;8.93;;;6.40;;
14754;SDS011;7469;50.906;6.952;2023-05-15T12:52:49;6.47;;;5.77;;
14754;SDS011;7469;50.906;6.952;2023-05-15T12:55:21;5.73;;;5.13;;
14754;SDS011;7469;50.906;6.952;2023-05-15T12:57:50;7.53;;;6.30;;
14754;SDS011;7469;50.906;6.952;2023-05-15T13:00:19;7.10;;;5.60;;
14754;SDS011;7469;50.906;6.952;2023-05-15T13:02:51;9.00;;;6.00;;
14754;SDS011;7469;50.906;6.952;2023-05-15T13:05:21;7.43;;;6.60;;
14754;SDS011;7469;50.906;6.952;2023-05-15T13:07:50;6.00;;;5.27;;
14754;SDS011;7469;50.906;6.952;2023-05-15T13:10:19;7.40;;;5.13;;
14754;SDS011;7469;50.906;6.952;2023-05-15T13:12:49;8.03;;;6.07;;
14754;SDS011;7469;50.906;6.952;2023-05-15T13:15:23;9.93;;;5.87;;
14754;SDS011;7469;50.906;6.952;2023-05-15T13:17:56;8.77;;;6.70;;
14754;SDS011;7469;50.906;6.952;2023-05-15T13:20:26;9.43;;;6.10;;
14754;SDS011;7469;50.906;6.952;2023-05-15T13:22:54;8.40;;;5.70;;
14754;SDS011;7469;50.906;6.952;2023-05-15T13:25:22;10.07;;;6.87;;
14754;SDS011;7469;50.906;6.952;2023-05-15T13:27:50;14.67;;;6.20;;
14754;SDS011;7469;50.906;6.952;2023-05-15T13:30:19;6.50;;;5.07;;
14754;SDS011;7469;50.906;6.952;2023-05-15T13:32:47;7.17;;;5.80;;
14754;SDS011;7469;50.906;6.952;2023-05-15T13:35:16;7.37;;;5.63;;
14754;SDS011;7469;50.906;6.952;2023-05-15T13:37:44;8.47;;;5.57;;
14754;SDS011;7469;50.906;6.952;2023-05-15T13:40:12;7.37;;;6.10;;
14754;SDS011;7469;50.906;6.952;2023-05-15T13:42:41;6.33;;;5.73;;
14754;SDS011;7469;50.906;6.952;2023-05-15T13:45:10;6.77;;;5.23;;
14754;SDS011;7469;50.906;6.952;2023-05-15T13:47:39;6.93;;;5.23;;
14754;SDS011;7469;50.906;6.952;2023-05-15T13:50:08;7.60;;;5.10;;
14754;SDS011;7469;50.906;6.952;2023-05-15T13:52:39;7.53;;;5.37;;
14754;SDS011;7469;50.906;6.952;2023-05-15T13:55:07;8.67;;;6.50;;
14754;SDS011;7469;50.906;6.952;2023-05-15T13:57:36;9.73;;;5.50;;
14754;SDS011;7469;50.906;6.952;2023-05-15T14:00:06;6.43;;;5.33;;
14754;SDS011;7469;50.906;6.952;2023-05-15T14:02:37;11.10;;;5.63;;
14754;SDS011;7469;50.906;6.952;2023-05-15T14:05:06;8.33;;;4.97;;
14754;SDS011;7469;50.906;6.952;2023-05-15T14:07:34;8.17;;;4.73;;
14754;SDS011;7469;50.906;6.952;2023-05-15T14:10:04;4.67;;;4.20;;
14754;SDS011;7469;50.906;6.952;2023-05-15T14:12:33;7.27;;;4.17;;
14754;SDS011;7469;50.906;6.952;2023-05-15T14:15:01;6.07;;;4.30;;
14754;SDS011;7469;50.906;6.952;2023-05-15T14:17:29;6.00;;;5.40;;
14754;SDS011;7469;50.906;6.952;2023-05-15T14:19:57;7.20;;;5.43;;
14754;SDS011;7469;50.906;6.952;2023-05-15T14:22:25;10.53;;;6.07;;
14754;SDS011;7469;50.906;6.952;2023-05-15T14:24:53;8.37;;;6.90;;
14754;SDS011;7469;50.906;6.952;2023-05-15T14:27:22;7.27;;;6.57;;
14754;SDS011;7469;50.906;6.952;2023-05-15T14:29:50;7.20;;;6.47;;
14754;SDS011;7469;50.906;6.952;2023-05-15T14:32:18;11.87;;;7.73;;
14754;SDS011;7469;50.906;6.952;2023-05-15T14:34:46;12.53;;;9.57;;
14754;SDS011;7469;50.906;6.952;2023-05-15T14:37:14;12.80;;;10.00;;
14754;SDS011;7469;50.906;6.952;2023-05-15T14:39:42;14.20;;;10.83;;
14754;SDS011;7469;50.906;6.952;2023-05-15T14:42:10;14.37;;;10.37;;
14754;SDS011;7469;50.906;6.952;2023-05-15T14:44:39;14.20;;;12.60;;
14754;SDS011;7469;50.906;6.952;2023-05-15T14:47:08;15.10;;;11.83;;
14754;SDS011;7469;50.906;6.952;2023-05-15T14:49:37;15.27;;;11.73;;
14754;SDS011;7469;50.906;6.952;2023-05-15T14:52:07;15.93;;;11.23;;
14754;SDS011;7469;50.906;6.952;2023-05-15T14:54:36;12.43;;;10.33;;
14754;SDS011;7469;50.906;6.952;2023-05-15T14:57:05;13.70;;;11.23;;
14754;SDS011;7469;50.906;6.952;2023-05-15T14:59:33;12.73;;;10.20;;
14754;SDS011;7469;50.906;6.952;2023-05-15T15:02:03;13.47;;;10.90;;
14754;SDS011;7469;50.906;6.952;2023-05-15T15:04:31;12.80;;;9.90;;